createdAt,value
2023-10-26T00:01:22.129Z,100.00
2023-10-26T00:03:51.572Z,100.00
2023-10-26T00:06:18.319Z,100.00
2023-10-26T00:08:50.197Z,100.00
2023-10-26T00:11:17.044Z,100.00
2023-10-26T00:13:43.815Z,100.00
2023-10-26T00:16:10.542Z,100.00
2023-10-26T00:18:37.647Z,100.00
2023-10-26T00:21:09.398Z,100.00
2023-10-26T00:23:38.317Z,100.00
2023-10-26T00:26:05.314Z,100.00
2023-10-26T00:28:34.469Z,100.00
2023-10-26T00:31:01.196Z,100.00
2023-10-26T00:33:27.928Z,100.00
2023-10-26T00:35:54.651Z,100.00
2023-10-26T00:38:24.259Z,100.00
2023-10-26T00:40:50.993Z,100.00
2023-10-26T00:43:23.586Z,100.00
2023-10-26T00:45:51.798Z,100.00
2023-10-26T00:48:21.376Z,100.00
2023-10-26T00:50:50.859Z,100.00
2023-10-26T00:53:20.325Z,100.00
2023-10-26T00:55:50.592Z,100.00
2023-10-26T00:58:17.604Z,100.00
2023-10-26T01:00:44.485Z,100.00
2023-10-26T01:03:11.495Z,100.00
2023-10-26T01:05:40.645Z,100.00
2023-10-26T01:08:07.687Z,100.00
2023-10-26T01:10:34.954Z,100.00
2023-10-26T01:13:02.187Z,100.00
2023-10-26T01:15:29.322Z,100.00
2023-10-26T01:17:56.069Z,100.00
2023-10-26T01:20:25.317Z,100.00
2023-10-26T01:22:55.050Z,100.00
2023-10-26T01:25:22.014Z,100.00
2023-10-26T01:27:51.250Z,100.00
2023-10-26T01:30:22.865Z,100.00
2023-10-26T01:32:52.177Z,100.00
2023-10-26T01:35:18.928Z,100.00
2023-10-26T01:37:45.600Z,100.00
2023-10-26T01:40:16.415Z,100.00
2023-10-26T01:42:43.114Z,100.00
2023-10-26T01:45:10.077Z,100.00
2023-10-26T01:47:41.116Z,100.00
2023-10-26T01:50:11.315Z,100.00
2023-10-26T01:52:41.111Z,100.00
2023-10-26T01:55:08.447Z,100.00
2023-10-26T01:57:35.093Z,100.00
2023-10-26T02:00:07.108Z,100.00
2023-10-26T02:02:38.760Z,100.00
2023-10-26T02:05:05.793Z,100.00
2023-10-26T02:07:34.606Z,100.00
2023-10-26T02:10:01.668Z,100.00
2023-10-26T02:12:28.349Z,100.00
2023-10-26T02:14:55.137Z,100.00
2023-10-26T02:17:21.774Z,100.00
2023-10-26T02:19:48.491Z,100.00
2023-10-26T02:22:15.713Z,100.00
2023-10-26T02:24:43.767Z,100.00
2023-10-26T02:27:13.321Z,100.00
2023-10-26T02:29:40.355Z,100.00
2023-10-26T02:32:07.319Z,100.00
2023-10-26T02:34:33.984Z,100.00
2023-10-26T02:37:03.080Z,100.00
2023-10-26T02:39:33.005Z,100.00
2023-10-26T02:41:59.828Z,100.00
2023-10-26T02:44:26.463Z,100.00
2023-10-26T02:46:53.140Z,100.00
2023-10-26T02:49:25.173Z,100.00
2023-10-26T02:51:53.860Z,100.00
2023-10-26T02:54:20.660Z,100.00
2023-10-26T02:56:48.334Z,100.00
2023-10-26T02:59:17.332Z,100.00
2023-10-26T03:01:43.954Z,100.00
2023-10-26T03:04:10.749Z,100.00
2023-10-26T03:06:40.592Z,100.00
2023-10-26T03:09:09.362Z,100.00
2023-10-26T03:11:38.566Z,100.00
2023-10-26T03:14:05.733Z,100.00
2023-10-26T03:16:39.306Z,100.00
2023-10-26T03:19:07.203Z,100.00
2023-10-26T03:21:37.546Z,100.00
2023-10-26T03:24:09.667Z,100.00
2023-10-26T03:26:38.793Z,100.00
2023-10-26T03:29:05.547Z,100.00
2023-10-26T03:31:34.686Z,100.00
2023-10-26T03:34:01.322Z,100.00
2023-10-26T03:36:30.473Z,100.00
2023-10-26T03:38:59.713Z,100.00
2023-10-26T03:41:29.818Z,100.00
2023-10-26T03:43:56.980Z,100.00
2023-10-26T03:46:23.708Z,100.00
2023-10-26T03:48:52.894Z,100.00
2023-10-26T03:51:23.002Z,100.00
2023-10-26T03:53:49.761Z,100.00
2023-10-26T03:56:17.401Z,100.00
2023-10-26T03:58:44.191Z,100.00
2023-10-26T04:01:11.910Z,100.00
2023-10-26T04:03:38.897Z,100.00
2023-10-26T04:06:08.117Z,100.00
2023-10-26T04:08:34.840Z,100.00
2023-10-26T04:11:01.542Z,100.00
2023-10-26T04:13:32.055Z,100.00
2023-10-26T04:16:06.845Z,100.00
2023-10-26T04:18:33.970Z,100.00
2023-10-26T04:21:00.875Z,100.00
2023-10-26T04:23:30.082Z,100.00
2023-10-26T04:25:57.102Z,100.00
2023-10-26T04:28:28.537Z,100.00
2023-10-26T04:30:57.765Z,100.00
2023-10-26T04:33:24.509Z,100.00
2023-10-26T04:35:52.226Z,100.00
2023-10-26T04:38:18.904Z,100.00
2023-10-26T04:40:45.610Z,100.00
2023-10-26T04:43:19.766Z,100.00
2023-10-26T04:45:48.155Z,100.00
2023-10-26T04:48:14.877Z,100.00
2023-10-26T04:50:41.621Z,100.00
2023-10-26T04:53:10.938Z,100.00
2023-10-26T04:55:37.577Z,100.00
2023-10-26T04:58:04.708Z,100.00
2023-10-26T05:00:31.912Z,100.00
2023-10-26T05:02:58.744Z,100.00
2023-10-26T05:05:27.689Z,100.00
2023-10-26T05:07:54.521Z,100.00
2023-10-26T05:10:21.522Z,100.00
2023-10-26T05:12:48.485Z,100.00
2023-10-26T05:15:17.794Z,100.00
2023-10-26T05:17:44.508Z,100.00
2023-10-26T05:20:13.625Z,100.00
2023-10-26T05:22:43.898Z,100.00
2023-10-26T05:25:13.913Z,100.00
2023-10-26T05:27:40.694Z,100.00
2023-10-26T05:30:09.964Z,100.00
2023-10-26T05:32:40.147Z,100.00
2023-10-26T05:35:07.386Z,100.00
2023-10-26T05:37:36.924Z,100.00
2023-10-26T05:40:05.641Z,100.00
2023-10-26T05:42:32.337Z,100.00
2023-10-26T05:45:04.115Z,100.00
2023-10-26T05:47:30.902Z,100.00
2023-10-26T05:49:57.634Z,100.00
2023-10-26T05:52:24.245Z,100.00
2023-10-26T05:54:52.135Z,100.00
2023-10-26T05:57:18.734Z,100.00
2023-10-26T05:59:45.482Z,100.00
2023-10-26T06:02:12.135Z,100.00
2023-10-26T06:04:38.765Z,100.00
2023-10-26T06:07:07.564Z,100.00
2023-10-26T06:09:39.270Z,100.00
2023-10-26T06:12:06.097Z,100.00
2023-10-26T06:14:32.792Z,100.00
2023-10-26T06:16:59.493Z,100.00
2023-10-26T06:19:33.092Z,100.00
2023-10-26T06:22:00.157Z,100.00
2023-10-26T06:24:27.563Z,100.00
2023-10-26T06:26:54.356Z,100.00
2023-10-26T06:29:23.340Z,100.00
2023-10-26T06:31:50.150Z,100.00
2023-10-26T06:34:19.048Z,100.00
2023-10-26T06:36:51.080Z,100.00
2023-10-26T06:39:17.906Z,100.00
2023-10-26T06:41:44.510Z,100.00
2023-10-26T06:44:16.236Z,100.00
2023-10-26T06:46:42.849Z,100.00
2023-10-26T06:49:22.930Z,100.00
2023-10-26T06:51:56.071Z,100.00
2023-10-26T06:54:23.067Z,100.00
2023-10-26T06:56:49.684Z,100.00
2023-10-26T06:59:16.320Z,100.00
2023-10-26T07:02:08.930Z,100.00
2023-10-26T07:04:30.176Z,100.00
2023-10-26T07:07:02.554Z,100.00
2023-10-26T07:09:30.177Z,100.00
2023-10-26T07:12:01.545Z,100.00
2023-10-26T07:14:30.759Z,100.00
2023-10-26T07:16:59.988Z,100.00
2023-10-26T07:19:26.699Z,100.00
2023-10-26T07:22:00.570Z,100.00
2023-10-26T07:24:30.565Z,100.00
2023-10-26T07:26:57.316Z,100.00
2023-10-26T07:29:26.497Z,100.00
2023-10-26T07:31:53.218Z,100.00
2023-10-26T07:34:19.994Z,100.00
2023-10-26T07:36:46.692Z,100.00
2023-10-26T07:39:44.485Z,100.00
2023-10-26T07:42:07.810Z,100.00
2023-10-26T07:44:35.784Z,100.00
2023-10-26T07:47:05.431Z,100.00
2023-10-26T07:49:34.930Z,100.00
2023-10-26T07:52:01.635Z,100.00
2023-10-26T07:54:31.187Z,100.00
2023-10-26T07:56:58.024Z,100.00
2023-10-26T07:59:27.024Z,100.00
2023-10-26T08:01:56.148Z,100.00
2023-10-26T08:04:25.671Z,100.00
2023-10-26T08:06:52.366Z,100.00
2023-10-26T08:09:19.086Z,100.00
2023-10-26T08:11:48.314Z,100.00
2023-10-26T08:14:31.052Z,100.00
2023-10-26T08:17:07.118Z,100.00
2023-10-26T08:19:36.509Z,100.00
2023-10-26T08:22:05.750Z,100.00
2023-10-26T08:24:34.715Z,100.00
2023-10-26T08:27:07.084Z,100.00
2023-10-26T08:29:37.471Z,100.00
2023-10-26T08:32:06.939Z,100.00
2023-10-26T08:34:38.580Z,100.00
2023-10-26T08:37:13.710Z,100.00
2023-10-26T08:39:45.320Z,100.00
2023-10-26T08:42:17.085Z,100.00
2023-10-26T08:44:45.126Z,100.00
2023-10-26T08:47:13.033Z,100.00
2023-10-26T08:49:39.937Z,100.00
2023-10-26T08:52:11.443Z,100.00
2023-10-26T08:54:38.312Z,100.00
2023-10-26T08:57:11.017Z,100.00
2023-10-26T08:59:37.744Z,100.00
2023-10-26T09:02:07.197Z,100.00
2023-10-26T09:04:36.360Z,100.00
2023-10-26T09:07:03.232Z,100.00
2023-10-26T09:09:29.950Z,100.00
2023-10-26T09:12:04.684Z,100.00
2023-10-26T09:14:31.328Z,100.00
2023-10-26T09:16:58.115Z,100.00
2023-10-26T09:19:28.307Z,100.00
2023-10-26T09:22:08.659Z,100.00
2023-10-26T09:24:35.323Z,100.00
2023-10-26T09:27:02.247Z,100.00
2023-10-26T09:29:41.664Z,100.00
2023-10-26T09:32:11.153Z,100.00
2023-10-26T09:34:41.806Z,100.00
2023-10-26T09:37:14.187Z,100.00
2023-10-26T09:39:42.783Z,100.00
2023-10-26T09:42:13.070Z,100.00
2023-10-26T09:44:40.121Z,100.00
2023-10-26T09:47:07.736Z,100.00
2023-10-26T09:49:39.408Z,100.00
2023-10-26T09:52:06.685Z,100.00
2023-10-26T09:54:37.056Z,100.00
2023-10-26T09:57:22.881Z,100.00
2023-10-26T10:00:00.653Z,100.00
2023-10-26T10:02:33.462Z,100.00
2023-10-26T10:05:00.209Z,100.00
2023-10-26T10:07:43.010Z,100.00
2023-10-26T10:10:12.522Z,100.00
2023-10-26T10:12:40.061Z,100.00
2023-10-26T10:17:45.355Z,100.00
2023-10-26T10:20:15.040Z,100.00
2023-10-26T10:22:41.701Z,100.00
2023-10-26T10:25:14.244Z,100.00
2023-10-26T10:27:50.228Z,100.00
2023-10-26T10:30:19.739Z,100.00
2023-10-26T10:32:46.507Z,100.00
2023-10-26T10:35:14.124Z,100.00
2023-10-26T10:38:05.878Z,100.00
2023-10-26T10:40:36.137Z,100.00
2023-10-26T10:43:02.905Z,100.00
2023-10-26T10:45:38.116Z,100.00
2023-10-26T10:48:07.962Z,100.00
2023-10-26T10:50:37.241Z,99.47
2023-10-26T10:53:05.872Z,100.00
2023-10-26T10:55:34.889Z,100.00
2023-10-26T10:58:02.748Z,98.10
2023-10-26T11:00:42.685Z,98.28
2023-10-26T11:03:09.657Z,99.10
2023-10-26T11:05:42.904Z,100.00
2023-10-26T11:08:09.794Z,95.50
2023-10-26T11:10:36.549Z,91.94
2023-10-26T11:13:03.805Z,94.98
2023-10-26T11:15:34.305Z,95.70
2023-10-26T11:18:01.858Z,95.65
2023-10-26T11:20:33.824Z,84.88
2023-10-26T11:23:00.436Z,82.81
2023-10-26T11:25:29.916Z,81.52
2023-10-26T11:27:57.320Z,87.71
2023-10-26T11:30:23.952Z,74.54
2023-10-26T11:32:53.008Z,84.08
2023-10-26T11:35:19.750Z,73.83
2023-10-26T11:37:57.961Z,63.14
2023-10-26T11:40:31.428Z,58.45
2023-10-26T11:43:00.809Z,55.88
2023-10-26T11:45:28.440Z,69.75
2023-10-26T11:47:56.197Z,54.72
2023-10-26T11:50:29.785Z,62.78
2023-10-26T11:53:02.300Z,64.35
2023-10-26T11:55:29.571Z,64.97
2023-10-26T11:57:58.166Z,60.26
2023-10-26T12:00:27.626Z,47.67
2023-10-26T12:02:58.069Z,44.63
2023-10-26T12:05:27.784Z,47.72
2023-10-26T12:07:54.996Z,49.06
2023-10-26T12:10:25.175Z,46.91
2023-10-26T12:12:54.488Z,39.72
2023-10-26T12:15:21.742Z,44.79
2023-10-26T12:17:49.453Z,48.77
2023-10-26T12:20:16.184Z,49.39
2023-10-26T12:22:42.921Z,52.58
2023-10-26T12:25:11.809Z,58.72
2023-10-26T12:28:21.378Z,59.71
2023-10-26T12:30:30.518Z,67.48
2023-10-26T12:32:58.181Z,78.73
2023-10-26T12:35:27.102Z,85.11
2023-10-26T12:37:56.199Z,87.03
2023-10-26T12:40:25.288Z,90.45
2023-10-26T12:42:51.876Z,93.24
2023-10-26T12:45:19.085Z,94.44
2023-10-26T12:47:49.315Z,93.87
2023-10-26T12:50:19.323Z,91.95
2023-10-26T12:52:48.604Z,87.78
2023-10-26T12:55:17.816Z,91.97
2023-10-26T12:57:45.961Z,90.17
2023-10-26T13:00:12.935Z,88.94
2023-10-26T13:02:42.070Z,89.34
2023-10-26T13:05:08.681Z,90.03
2023-10-26T13:07:35.398Z,91.09
2023-10-26T13:10:02.147Z,91.93
2023-10-26T13:12:31.834Z,91.29
2023-10-26T13:15:04.562Z,91.31
2023-10-26T13:17:31.769Z,90.34
2023-10-26T13:19:58.472Z,90.64
2023-10-26T13:22:25.683Z,90.77
2023-10-26T13:24:52.374Z,91.48
2023-10-26T13:27:19.140Z,90.33
2023-10-26T13:29:46.030Z,85.85
2023-10-26T13:32:15.524Z,78.70
2023-10-26T13:34:44.671Z,75.16
2023-10-26T13:37:11.545Z,75.45
2023-10-26T13:39:40.886Z,77.19
2023-10-26T13:42:07.587Z,79.33
2023-10-26T13:44:34.368Z,81.55
2023-10-26T13:47:01.069Z,83.70
2023-10-26T13:49:27.812Z,82.92
2023-10-26T13:51:54.473Z,90.08
2023-10-26T13:54:22.388Z,93.67
2023-10-26T13:56:49.107Z,94.29
2023-10-26T13:59:17.963Z,82.52
2023-10-26T14:01:47.209Z,79.34
2023-10-26T14:04:15.525Z,69.10
2023-10-26T14:06:42.242Z,63.71
2023-10-26T14:09:08.915Z,72.01
2023-10-26T14:11:35.681Z,72.16
2023-10-26T14:14:02.285Z,73.29
2023-10-26T14:16:31.175Z,73.80
2023-10-26T14:19:00.490Z,80.73
2023-10-26T14:21:27.803Z,88.93
2023-10-26T14:23:54.477Z,90.06
2023-10-26T14:26:23.674Z,90.62
2023-10-26T14:28:50.325Z,89.85
2023-10-26T14:31:17.960Z,93.31
2023-10-26T14:33:49.042Z,96.54
2023-10-26T14:36:15.648Z,99.19
2023-10-26T14:38:44.769Z,100.00
2023-10-26T14:41:16.373Z,100.00
2023-10-26T14:43:43.028Z,100.00
2023-10-26T14:46:12.892Z,100.00
2023-10-26T14:48:39.558Z,100.00
2023-10-26T14:51:08.938Z,100.00
2023-10-26T14:53:35.581Z,100.00
2023-10-26T14:56:02.893Z,100.00
2023-10-26T14:58:31.892Z,100.00
2023-10-26T15:00:58.738Z,100.00
2023-10-26T15:03:25.434Z,100.00
2023-10-26T15:05:52.085Z,100.00
2023-10-26T15:08:18.781Z,100.00
2023-10-26T15:10:51.943Z,100.00
2023-10-26T15:13:19.918Z,100.00
2023-10-26T15:15:49.548Z,100.00
2023-10-26T15:18:16.312Z,100.00
2023-10-26T15:20:45.249Z,100.00
2023-10-26T15:23:14.464Z,100.00
2023-10-26T15:25:41.314Z,100.00
2023-10-26T15:28:08.075Z,100.00
2023-10-26T15:30:35.057Z,100.00
2023-10-26T15:33:01.863Z,100.00
2023-10-26T15:35:28.595Z,100.00
2023-10-26T15:37:55.693Z,100.00
2023-10-26T15:40:22.493Z,100.00
2023-10-26T15:42:49.191Z,100.00
2023-10-26T15:45:21.931Z,100.00
2023-10-26T15:47:51.239Z,100.00
2023-10-26T15:50:18.788Z,100.00
2023-10-26T15:52:46.332Z,100.00
2023-10-26T15:55:13.027Z,100.00
2023-10-26T15:57:39.762Z,100.00
2023-10-26T16:00:10.505Z,100.00
2023-10-26T16:02:44.100Z,100.00
2023-10-26T16:05:13.747Z,100.00
2023-10-26T16:07:40.562Z,100.00
2023-10-26T16:10:07.506Z,100.00
2023-10-26T16:12:36.452Z,100.00
2023-10-26T16:15:08.175Z,100.00
2023-10-26T16:17:37.821Z,100.00
2023-10-26T16:20:04.827Z,100.00
2023-10-26T16:22:31.493Z,100.00
2023-10-26T16:24:58.224Z,100.00
2023-10-26T16:27:28.099Z,100.00
2023-10-26T16:29:54.830Z,100.00
2023-10-26T16:32:28.165Z,100.00
2023-10-26T16:34:57.560Z,100.00
2023-10-26T16:37:24.327Z,100.00
2023-10-26T16:39:53.735Z,100.00
2023-10-26T16:42:20.408Z,100.00
2023-10-26T16:44:47.130Z,100.00
2023-10-26T16:47:16.055Z,100.00
2023-10-26T16:49:42.878Z,100.00
2023-10-26T16:52:13.941Z,100.00
2023-10-26T16:54:44.638Z,100.00
2023-10-26T16:57:13.813Z,100.00
2023-10-26T16:59:40.644Z,100.00
2023-10-26T17:02:07.377Z,100.00
2023-10-26T17:04:34.015Z,100.00
2023-10-26T17:07:00.719Z,100.00
2023-10-26T17:09:30.197Z,100.00
2023-10-26T17:11:59.388Z,100.00
2023-10-26T17:14:28.348Z,100.00
2023-10-26T17:16:55.059Z,100.00
2023-10-26T17:19:22.370Z,100.00
2023-10-26T17:21:50.580Z,100.00
2023-10-26T17:24:17.652Z,100.00
2023-10-26T17:26:44.498Z,100.00
2023-10-26T17:29:11.144Z,100.00
2023-10-26T17:31:37.958Z,100.00
2023-10-26T17:34:04.955Z,100.00
2023-10-26T17:36:31.591Z,100.00
2023-10-26T17:39:01.137Z,100.00
2023-10-26T17:41:27.754Z,100.00
2023-10-26T17:43:54.452Z,100.00
2023-10-26T17:46:21.240Z,100.00
2023-10-26T17:48:48.031Z,100.00
2023-10-26T17:51:17.139Z,100.00
2023-10-26T17:53:43.901Z,100.00
2023-10-26T17:56:16.015Z,100.00
2023-10-26T17:58:42.894Z,100.00
2023-10-26T18:01:13.373Z,100.00
2023-10-26T18:03:40.491Z,100.00
2023-10-26T18:06:09.350Z,100.00
2023-10-26T18:08:44.940Z,100.00
2023-10-26T18:11:18.888Z,100.00
2023-10-26T18:13:50.249Z,100.00
2023-10-26T18:16:20.815Z,100.00
2023-10-26T18:18:47.594Z,100.00
2023-10-26T18:21:14.520Z,100.00
2023-10-26T18:23:41.243Z,100.00
2023-10-26T18:26:09.006Z,100.00
2023-10-26T18:28:45.053Z,100.00
2023-10-26T18:31:13.918Z,100.00
2023-10-26T18:33:41.702Z,100.00
2023-10-26T18:36:11.921Z,100.00
2023-10-26T18:38:39.200Z,100.00
2023-10-26T18:41:09.202Z,100.00
2023-10-26T18:43:36.284Z,100.00
2023-10-26T18:46:02.893Z,100.00
2023-10-26T18:48:30.911Z,100.00
2023-10-26T18:50:57.585Z,100.00
2023-10-26T18:53:26.524Z,100.00
2023-10-26T18:55:53.347Z,100.00
2023-10-26T18:58:23.034Z,100.00
2023-10-26T19:00:49.872Z,100.00
2023-10-26T19:03:17.485Z,100.00
2023-10-26T19:05:44.622Z,100.00
2023-10-26T19:08:13.963Z,100.00
2023-10-26T19:10:40.874Z,100.00
2023-10-26T19:13:08.867Z,100.00
2023-10-26T19:15:35.784Z,100.00
2023-10-26T19:18:04.986Z,100.00
2023-10-26T19:20:34.459Z,100.00
2023-10-26T19:23:01.591Z,100.00
2023-10-26T19:25:28.788Z,100.00
2023-10-26T19:27:55.854Z,100.00
2023-10-26T19:30:26.392Z,100.00
2023-10-26T19:32:54.206Z,100.00
2023-10-26T19:35:20.979Z,100.00
2023-10-26T19:37:50.516Z,100.00
2023-10-26T19:40:17.681Z,100.00
2023-10-26T19:42:46.899Z,100.00
2023-10-26T19:45:17.281Z,100.00
2023-10-26T19:47:46.739Z,100.00
2023-10-26T19:50:13.641Z,100.00
2023-10-26T19:52:40.364Z,100.00
2023-10-26T19:55:08.309Z,100.00
2023-10-26T19:57:38.243Z,100.00
2023-10-26T20:00:10.485Z,100.00
2023-10-26T20:02:40.031Z,100.00
2023-10-26T20:05:07.155Z,100.00
2023-10-26T20:07:33.941Z,100.00
2023-10-26T20:10:00.553Z,100.00
2023-10-26T20:12:30.121Z,100.00
2023-10-26T20:15:01.632Z,100.00
2023-10-26T20:17:28.199Z,100.00
2023-10-26T20:19:54.819Z,100.00
2023-10-26T20:22:21.563Z,100.00
2023-10-26T20:24:50.532Z,100.00
2023-10-26T20:27:17.177Z,100.00
2023-10-26T20:29:44.169Z,100.00
2023-10-26T20:32:13.537Z,100.00
2023-10-26T20:34:42.556Z,100.00
2023-10-26T20:37:13.858Z,100.00
2023-10-26T20:39:44.678Z,100.00
2023-10-26T20:42:11.607Z,100.00
2023-10-26T20:44:40.512Z,100.00
2023-10-26T20:47:07.286Z,100.00
2023-10-26T20:49:34.029Z,100.00
2023-10-26T20:52:01.245Z,100.00
2023-10-26T20:54:28.163Z,100.00
2023-10-26T20:56:54.780Z,100.00
2023-10-26T20:59:24.123Z,100.00
2023-10-26T21:01:50.903Z,100.00
2023-10-26T21:04:17.704Z,100.00
2023-10-26T21:06:47.844Z,100.00
2023-10-26T21:09:15.636Z,100.00
2023-10-26T21:11:42.800Z,100.00
2023-10-26T21:14:12.814Z,100.00
2023-10-26T21:16:41.888Z,100.00
2023-10-26T21:19:08.661Z,100.00
2023-10-26T21:21:35.778Z,100.00
2023-10-26T21:24:02.487Z,100.00
2023-10-26T21:26:29.085Z,100.00
2023-10-26T21:28:58.599Z,100.00
2023-10-26T21:31:27.979Z,100.00
2023-10-26T21:33:57.165Z,100.00
2023-10-26T21:36:26.358Z,100.00
2023-10-26T21:38:52.968Z,100.00
2023-10-26T21:41:19.678Z,100.00
2023-10-26T21:43:46.271Z,100.00
2023-10-26T21:46:15.124Z,100.00
2023-10-26T21:48:41.828Z,100.00
2023-10-26T21:51:09.617Z,100.00
2023-10-26T21:53:36.661Z,100.00
2023-10-26T21:56:03.333Z,100.00
2023-10-26T21:58:29.988Z,100.00
2023-10-26T22:00:57.469Z,100.00
2023-10-26T22:03:24.250Z,100.00
2023-10-26T22:05:51.098Z,100.00
2023-10-26T22:08:20.208Z,100.00
2023-10-26T22:10:46.889Z,100.00
2023-10-26T22:13:13.686Z,100.00
2023-10-26T22:15:40.736Z,100.00
2023-10-26T22:18:08.615Z,100.00
2023-10-26T22:20:38.525Z,100.00
2023-10-26T22:23:05.526Z,100.00
2023-10-26T22:25:32.189Z,100.00
2023-10-26T22:27:58.961Z,100.00
2023-10-26T22:30:28.270Z,100.00
2023-10-26T22:32:55.034Z,100.00
2023-10-26T22:35:25.621Z,100.00
2023-10-26T22:37:54.706Z,100.00
2023-10-26T22:40:21.504Z,100.00
2023-10-26T22:42:50.449Z,100.00
2023-10-26T22:45:19.747Z,100.00
2023-10-26T22:47:46.590Z,100.00
2023-10-26T22:50:15.888Z,100.00
2023-10-26T22:52:42.746Z,100.00
2023-10-26T22:55:12.579Z,100.00
2023-10-26T22:57:39.357Z,100.00
2023-10-26T23:00:07.392Z,100.00
2023-10-26T23:02:36.489Z,100.00
2023-10-26T23:05:03.638Z,100.00
2023-10-26T23:07:35.730Z,100.00
2023-10-26T23:10:05.996Z,100.00
2023-10-26T23:12:32.737Z,100.00
2023-10-26T23:14:59.298Z,100.00
2023-10-26T23:17:26.012Z,100.00
2023-10-26T23:19:52.879Z,100.00
2023-10-26T23:22:19.573Z,100.00
2023-10-26T23:24:46.393Z,100.00
2023-10-26T23:27:13.634Z,100.00
2023-10-26T23:29:40.654Z,100.00
2023-10-26T23:32:07.326Z,100.00
2023-10-26T23:34:34.219Z,100.00
2023-10-26T23:37:03.194Z,100.00
2023-10-26T23:39:30.325Z,100.00
2023-10-26T23:41:59.392Z,100.00
2023-10-26T23:44:28.556Z,100.00
2023-10-26T23:46:55.552Z,100.00
2023-10-26T23:49:24.892Z,100.00
2023-10-26T23:51:54.672Z,100.00
2023-10-26T23:54:23.482Z,100.00
2023-10-26T23:56:50.220Z,100.00
2023-10-26T23:59:19.622Z,100.00
